sensor_id;sensor_type;location;lat;lon;timestamp;P1;durP1;ratioP1;P2;durP2;ratioP2
15183;SDS011;7693;49.266;7.104;2023-08-30T04:57:12;16.67;;;15.17;;
15183;SDS011;7693;49.266;7.104;2023-08-30T04:59:39;17.13;;;15.37;;
15183;SDS011;7693;49.266;7.104;2023-08-30T05:02:05;15.73;;;14.33;;
15183;SDS011;7693;49.266;7.104;2023-08-30T05:04:31;15.93;;;14.53;;
15183;SDS011;7693;49.266;7.104;2023-08-30T05:06:57;14.50;;;13.40;;
15183;SDS011;7693;49.266;7.104;2023-08-30T05:09:22;14.77;;;13.63;;
15183;SDS011;7693;49.266;7.104;2023-08-30T05:11:50;15.37;;;13.97;;
15183;SDS011;7693;49.266;7.104;2023-08-30T05:14:16;16.30;;;13.83;;
15183;SDS011;7693;49.266;7.104;2023-08-30T05:16:42;15.03;;;13.83;;
15183;SDS011;7693;49.266;7.104;2023-08-30T05:19:07;20.27;;;14.13;;
15183;SDS011;7693;49.266;7.104;2023-08-30T05:21:33;14.83;;;13.40;;
15183;SDS011;7693;49.266;7.104;2023-08-30T05:23:58;14.33;;;13.07;;
15183;SDS011;7693;49.266;7.104;2023-08-30T05:26:24;14.23;;;13.10;;
15183;SDS011;7693;49.266;7.104;2023-08-30T05:28:49;14.23;;;13.03;;
15183;SDS011;7693;49.266;7.104;2023-08-30T05:31:15;15.10;;;13.83;;
15183;SDS011;7693;49.266;7.104;2023-08-30T05:33:40;13.13;;;12.13;;
15183;SDS011;7693;49.266;7.104;2023-08-30T05:36:06;14.27;;;13.07;;
15183;SDS011;7693;49.266;7.104;2023-08-30T05:38:31;14.27;;;13.17;;
15183;SDS011;7693;49.266;7.104;2023-08-30T05:40:57;14.10;;;12.97;;
15183;SDS011;7693;49.266;7.104;2023-08-30T05:43:22;14.80;;;13.43;;
15183;SDS011;7693;49.266;7.104;2023-08-30T05:45:48;15.17;;;13.97;;
15183;SDS011;7693;49.266;7.104;2023-08-30T05:48:13;15.40;;;14.10;;
15183;SDS011;7693;49.266;7.104;2023-08-30T05:50:39;14.63;;;13.43;;
15183;SDS011;7693;49.266;7.104;2023-08-30T05:53:05;13.97;;;12.77;;
15183;SDS011;7693;49.266;7.104;2023-08-30T05:55:31;14.47;;;13.27;;
15183;SDS011;7693;49.266;7.104;2023-08-30T05:57:57;13.70;;;12.70;;
15183;SDS011;7693;49.266;7.104;2023-08-30T06:00:22;14.03;;;12.87;;
15183;SDS011;7693;49.266;7.104;2023-08-30T06:02:48;14.60;;;13.40;;
15183;SDS011;7693;49.266;7.104;2023-08-30T06:05:16;14.17;;;12.77;;
15183;SDS011;7693;49.266;7.104;2023-08-30T06:07:42;13.90;;;12.90;;
15183;SDS011;7693;49.266;7.104;2023-08-30T06:10:08;13.87;;;12.67;;
15183;SDS011;7693;49.266;7.104;2023-08-30T06:12:34;13.60;;;12.50;;
15183;SDS011;7693;49.266;7.104;2023-08-30T06:15:00;13.53;;;12.53;;
15183;SDS011;7693;49.266;7.104;2023-08-30T06:17:26;14.77;;;13.57;;
15183;SDS011;7693;49.266;7.104;2023-08-30T06:19:51;14.47;;;13.27;;
15183;SDS011;7693;49.266;7.104;2023-08-30T06:22:17;14.27;;;13.07;;
15183;SDS011;7693;49.266;7.104;2023-08-30T06:24:42;14.77;;;13.57;;
15183;SDS011;7693;49.266;7.104;2023-08-30T06:27:08;15.50;;;14.30;;
15183;SDS011;7693;49.266;7.104;2023-08-30T06:29:33;15.37;;;14.13;;
15183;SDS011;7693;49.266;7.104;2023-08-30T06:31:59;15.23;;;13.83;;
15183;SDS011;7693;49.266;7.104;2023-08-30T06:34:25;14.90;;;13.70;;
15183;SDS011;7693;49.266;7.104;2023-08-30T06:36:50;15.57;;;14.40;;
15183;SDS011;7693;49.266;7.104;2023-08-30T06:39:17;15.00;;;13.83;;
15183;SDS011;7693;49.266;7.104;2023-08-30T06:41:43;14.40;;;13.30;;
15183;SDS011;7693;49.266;7.104;2023-08-30T06:44:08;14.27;;;13.03;;
15183;SDS011;7693;49.266;7.104;2023-08-30T06:46:34;13.43;;;12.43;;
15183;SDS011;7693;49.266;7.104;2023-08-30T06:48:59;13.40;;;12.40;;
15183;SDS011;7693;49.266;7.104;2023-08-30T06:51:25;14.23;;;13.07;;
15183;SDS011;7693;49.266;7.104;2023-08-30T06:53:50;14.33;;;13.10;;
15183;SDS011;7693;49.266;7.104;2023-08-30T06:56:16;13.20;;;12.20;;
15183;SDS011;7693;49.266;7.104;2023-08-30T06:58:42;14.30;;;13.00;;
15183;SDS011;7693;49.266;7.104;2023-08-30T07:01:07;13.77;;;12.77;;
15183;SDS011;7693;49.266;7.104;2023-08-30T07:03:33;12.67;;;11.77;;
15183;SDS011;7693;49.266;7.104;2023-08-30T07:05:58;13.10;;;12.20;;
15183;SDS011;7693;49.266;7.104;2023-08-30T07:08:24;13.23;;;12.33;;
15183;SDS011;7693;49.266;7.104;2023-08-30T07:10:51;13.17;;;12.23;;
15183;SDS011;7693;49.266;7.104;2023-08-30T07:13:16;13.20;;;12.20;;
15183;SDS011;7693;49.266;7.104;2023-08-30T07:15:42;12.75;;;11.85;;
15183;SDS011;7693;49.266;7.104;2023-08-30T07:18:08;13.23;;;12.27;;
15183;SDS011;7693;49.266;7.104;2023-08-30T07:20:34;13.57;;;12.57;;
15183;SDS011;7693;49.266;7.104;2023-08-30T07:23:01;14.03;;;12.70;;
15183;SDS011;7693;49.266;7.104;2023-08-30T07:25:29;12.80;;;11.70;;
15183;SDS011;7693;49.266;7.104;2023-08-30T07:27:56;11.57;;;10.77;;
15183;SDS011;7693;49.266;7.104;2023-08-30T07:30:21;11.40;;;10.60;;
15183;SDS011;7693;49.266;7.104;2023-08-30T07:32:47;10.70;;;10.00;;
15183;SDS011;7693;49.266;7.104;2023-08-30T07:35:13;10.77;;;10.00;;
15183;SDS011;7693;49.266;7.104;2023-08-30T07:37:39;11.53;;;10.73;;
15183;SDS011;7693;49.266;7.104;2023-08-30T07:40:04;10.40;;;9.80;;
15183;SDS011;7693;49.266;7.104;2023-08-30T07:42:30;10.37;;;9.70;;
15183;SDS011;7693;49.266;7.104;2023-08-30T07:44:56;10.55;;;9.85;;
15183;SDS011;7693;49.266;7.104;2023-08-30T07:47:21;10.98;;;10.10;;
15183;SDS011;7693;49.266;7.104;2023-08-30T07:49:47;11.23;;;10.32;;
15183;SDS011;7693;49.266;7.104;2023-08-30T07:52:12;10.80;;;10.05;;
15183;SDS011;7693;49.266;7.104;2023-08-30T07:54:39;10.75;;;10.05;;
15183;SDS011;7693;49.266;7.104;2023-08-30T07:57:05;10.52;;;9.82;;
15183;SDS011;7693;49.266;7.104;2023-08-30T07:59:34;9.65;;;9.05;;
15183;SDS011;7693;49.266;7.104;2023-08-30T08:02:01;10.45;;;9.57;;
15183;SDS011;7693;49.266;7.104;2023-08-30T08:04:27;10.57;;;9.73;;
15183;SDS011;7693;49.266;7.104;2023-08-30T08:06:53;10.13;;;9.52;;
15183;SDS011;7693;49.266;7.104;2023-08-30T08:09:19;9.63;;;9.02;;
15183;SDS011;7693;49.266;7.104;2023-08-30T08:11:46;11.02;;;10.10;;
15183;SDS011;7693;49.266;7.104;2023-08-30T08:14:13;11.93;;;10.00;;
15183;SDS011;7693;49.266;7.104;2023-08-30T08:16:39;10.52;;;9.82;;
15183;SDS011;7693;49.266;7.104;2023-08-30T08:19:04;10.60;;;9.80;;
15183;SDS011;7693;49.266;7.104;2023-08-30T08:21:31;11.25;;;10.45;;
15183;SDS011;7693;49.266;7.104;2023-08-30T08:23:58;10.98;;;10.15;;
15183;SDS011;7693;49.266;7.104;2023-08-30T08:26:24;11.57;;;10.57;;
15183;SDS011;7693;49.266;7.104;2023-08-30T08:28:50;12.40;;;11.40;;
15183;SDS011;7693;49.266;7.104;2023-08-30T08:31:16;12.32;;;11.43;;
15183;SDS011;7693;49.266;7.104;2023-08-30T08:33:42;13.45;;;12.30;;
15183;SDS011;7693;49.266;7.104;2023-08-30T08:36:08;13.82;;;12.73;;
15183;SDS011;7693;49.266;7.104;2023-08-30T08:38:34;13.27;;;12.38;;
15183;SDS011;7693;49.266;7.104;2023-08-30T08:41:04;14.95;;;13.85;;
15183;SDS011;7693;49.266;7.104;2023-08-30T08:43:32;14.82;;;13.63;;
15183;SDS011;7693;49.266;7.104;2023-08-30T08:46:02;14.80;;;13.60;;
15183;SDS011;7693;49.266;7.104;2023-08-30T08:48:31;15.63;;;14.07;;
15183;SDS011;7693;49.266;7.104;2023-08-30T08:51:00;15.32;;;14.23;;
15183;SDS011;7693;49.266;7.104;2023-08-30T08:53:26;16.10;;;14.90;;
15183;SDS011;7693;49.266;7.104;2023-08-30T08:55:53;16.23;;;14.82;;
15183;SDS011;7693;49.266;7.104;2023-08-30T08:58:21;15.00;;;13.90;;
15183;SDS011;7693;49.266;7.104;2023-08-30T09:00:47;15.20;;;13.82;;
15183;SDS011;7693;49.266;7.104;2023-08-30T09:03:13;15.13;;;13.73;;
15183;SDS011;7693;49.266;7.104;2023-08-30T09:05:39;13.70;;;12.68;;
15183;SDS011;7693;49.266;7.104;2023-08-30T09:08:05;12.45;;;11.63;;
15183;SDS011;7693;49.266;7.104;2023-08-30T09:10:32;11.00;;;10.35;;
15183;SDS011;7693;49.266;7.104;2023-08-30T09:12:58;10.82;;;10.02;;
15183;SDS011;7693;49.266;7.104;2023-08-30T09:15:33;10.75;;;9.95;;
15183;SDS011;7693;49.266;7.104;2023-08-30T09:18:02;9.93;;;9.25;;
15183;SDS011;7693;49.266;7.104;2023-08-30T09:20:27;9.98;;;9.00;;
15183;SDS011;7693;49.266;7.104;2023-08-30T09:22:53;9.02;;;8.43;;
15183;SDS011;7693;49.266;7.104;2023-08-30T09:25:25;8.68;;;8.07;;
15183;SDS011;7693;49.266;7.104;2023-08-30T09:27:59;9.07;;;8.38;;
15183;SDS011;7693;49.266;7.104;2023-08-30T09:30:24;10.98;;;9.40;;
15183;SDS011;7693;49.266;7.104;2023-08-30T09:32:51;8.82;;;8.23;;
15183;SDS011;7693;49.266;7.104;2023-08-30T09:35:17;8.80;;;8.10;;
15183;SDS011;7693;49.266;7.104;2023-08-30T09:37:45;8.43;;;7.80;;
15183;SDS011;7693;49.266;7.104;2023-08-30T09:40:11;8.02;;;7.38;;
15183;SDS011;7693;49.266;7.104;2023-08-30T09:42:42;8.15;;;7.50;;
15183;SDS011;7693;49.266;7.104;2023-08-30T09:45:18;7.72;;;7.05;;
15183;SDS011;7693;49.266;7.104;2023-08-30T09:47:48;7.50;;;7.00;;
15183;SDS011;7693;49.266;7.104;2023-08-30T09:50:18;7.35;;;6.93;;
15183;SDS011;7693;49.266;7.104;2023-08-30T09:52:46;7.97;;;7.28;;
15183;SDS011;7693;49.266;7.104;2023-08-30T09:55:13;9.00;;;8.40;;
15183;SDS011;7693;49.266;7.104;2023-08-30T09:57:39;7.28;;;6.88;;
15183;SDS011;7693;49.266;7.104;2023-08-30T10:00:08;8.88;;;8.00;;
15183;SDS011;7693;49.266;7.104;2023-08-30T10:02:37;7.50;;;7.00;;
15183;SDS011;7693;49.266;7.104;2023-08-30T10:05:06;7.85;;;7.00;;
15183;SDS011;7693;49.266;7.104;2023-08-30T10:07:33;8.60;;;8.13;;
15183;SDS011;7693;49.266;7.104;2023-08-30T10:10:01;8.10;;;7.60;;
15183;SDS011;7693;49.266;7.104;2023-08-30T10:12:29;8.45;;;7.82;;
15183;SDS011;7693;49.266;7.104;2023-08-30T10:14:58;7.20;;;6.72;;
15183;SDS011;7693;49.266;7.104;2023-08-30T10:17:28;7.35;;;6.75;;
15183;SDS011;7693;49.266;7.104;2023-08-30T10:19:58;6.50;;;6.00;;
15183;SDS011;7693;49.266;7.104;2023-08-30T10:22:26;7.13;;;6.57;;
15183;SDS011;7693;49.266;7.104;2023-08-30T10:24:56;5.82;;;5.32;;
15183;SDS011;7693;49.266;7.104;2023-08-30T10:27:31;6.53;;;6.05;;
15183;SDS011;7693;49.266;7.104;2023-08-30T10:29:59;5.40;;;5.10;;
15183;SDS011;7693;49.266;7.104;2023-08-30T10:32:27;5.00;;;4.60;;
15183;SDS011;7693;49.266;7.104;2023-08-30T10:34:53;4.30;;;4.00;;
15183;SDS011;7693;49.266;7.104;2023-08-30T13:14:39;3.92;;;3.03;;
15183;SDS011;7693;49.266;7.104;2023-08-30T13:17:05;2.80;;;2.70;;
15183;SDS011;7693;49.266;7.104;2023-08-30T13:19:31;3.58;;;2.95;;
15183;SDS011;7693;49.266;7.104;2023-08-30T13:21:56;5.55;;;2.95;;
15183;SDS011;7693;49.266;7.104;2023-08-30T13:24:22;2.97;;;2.42;;
15183;SDS011;7693;49.266;7.104;2023-08-30T13:26:48;3.13;;;2.80;;
15183;SDS011;7693;49.266;7.104;2023-08-30T13:29:13;3.58;;;2.72;;
15183;SDS011;7693;49.266;7.104;2023-08-30T13:31:40;2.70;;;2.50;;
15183;SDS011;7693;49.266;7.104;2023-08-30T13:34:05;3.20;;;2.90;;
15183;SDS011;7693;49.266;7.104;2023-08-30T13:36:31;2.78;;;2.63;;
15183;SDS011;7693;49.266;7.104;2023-08-30T13:38:57;3.47;;;3.03;;
15183;SDS011;7693;49.266;7.104;2023-08-30T13:41:22;3.08;;;2.88;;
15183;SDS011;7693;49.266;7.104;2023-08-30T13:43:48;2.88;;;2.75;;
15183;SDS011;7693;49.266;7.104;2023-08-30T13:46:13;2.70;;;2.60;;
15183;SDS011;7693;49.266;7.104;2023-08-30T13:48:39;2.95;;;2.75;;
15183;SDS011;7693;49.266;7.104;2023-08-30T13:51:05;3.17;;;2.88;;
15183;SDS011;7693;49.266;7.104;2023-08-30T13:53:30;2.72;;;2.63;;
15183;SDS011;7693;49.266;7.104;2023-08-30T13:55:56;3.15;;;2.42;;
15183;SDS011;7693;49.266;7.104;2023-08-30T13:58:21;3.25;;;2.70;;
15183;SDS011;7693;49.266;7.104;2023-08-30T14:00:47;3.83;;;2.72;;
15183;SDS011;7693;49.266;7.104;2023-08-30T14:03:12;2.45;;;2.35;;
15183;SDS011;7693;49.266;7.104;2023-08-30T14:05:38;2.78;;;2.58;;
15183;SDS011;7693;49.266;7.104;2023-08-30T14:08:06;2.60;;;2.50;;
15183;SDS011;7693;49.266;7.104;2023-08-30T14:10:32;2.83;;;2.65;;
15183;SDS011;7693;49.266;7.104;2023-08-30T14:12:58;4.55;;;2.85;;
15183;SDS011;7693;49.266;7.104;2023-08-30T14:15:23;2.60;;;2.40;;
15183;SDS011;7693;49.266;7.104;2023-08-30T14:17:49;2.50;;;2.30;;
15183;SDS011;7693;49.266;7.104;2023-08-30T14:20:15;2.40;;;2.30;;
15183;SDS011;7693;49.266;7.104;2023-08-30T14:22:40;2.50;;;2.38;;
15183;SDS011;7693;49.266;7.104;2023-08-30T14:25:06;2.63;;;2.38;;
15183;SDS011;7693;49.266;7.104;2023-08-30T14:27:32;2.47;;;2.38;;
15183;SDS011;7693;49.266;7.104;2023-08-30T14:29:57;2.67;;;2.47;;
15183;SDS011;7693;49.266;7.104;2023-08-30T14:32:25;5.18;;;2.55;;
15183;SDS011;7693;49.266;7.104;2023-08-30T14:34:51;3.20;;;2.90;;
15183;SDS011;7693;49.266;7.104;2023-08-30T14:37:16;2.83;;;2.58;;
15183;SDS011;7693;49.266;7.104;2023-08-30T14:39:42;2.65;;;2.45;;
15183;SDS011;7693;49.266;7.104;2023-08-30T14:42:07;2.60;;;2.50;;
15183;SDS011;7693;49.266;7.104;2023-08-30T14:44:33;2.85;;;2.65;;
15183;SDS011;7693;49.266;7.104;2023-08-30T14:46:58;5.20;;;2.63;;
15183;SDS011;7693;49.266;7.104;2023-08-30T14:49:24;2.67;;;2.45;;
15183;SDS011;7693;49.266;7.104;2023-08-30T14:51:49;2.85;;;2.55;;
15183;SDS011;7693;49.266;7.104;2023-08-30T14:54:15;3.67;;;2.50;;
15183;SDS011;7693;49.266;7.104;2023-08-30T14:56:41;2.90;;;2.70;;
15183;SDS011;7693;49.266;7.104;2023-08-30T14:59:06;2.83;;;2.63;;
15183;SDS011;7693;49.266;7.104;2023-08-30T15:01:32;2.70;;;2.50;;
15183;SDS011;7693;49.266;7.104;2023-08-30T15:03:57;3.05;;;2.85;;
15183;SDS011;7693;49.266;7.104;2023-08-30T15:06:23;2.78;;;2.67;;
15183;SDS011;7693;49.266;7.104;2023-08-30T15:08:48;3.15;;;2.80;;
15183;SDS011;7693;49.266;7.104;2023-08-30T15:11:14;2.92;;;2.80;;
15183;SDS011;7693;49.266;7.104;2023-08-30T15:13:39;3.25;;;2.65;;
15183;SDS011;7693;49.266;7.104;2023-08-30T15:16:05;2.88;;;2.67;;
15183;SDS011;7693;49.266;7.104;2023-08-30T15:18:31;3.13;;;2.78;;
15183;SDS011;7693;49.266;7.104;2023-08-30T15:20:56;2.72;;;2.63;;
15183;SDS011;7693;49.266;7.104;2023-08-30T15:23:24;2.70;;;2.50;;
15183;SDS011;7693;49.266;7.104;2023-08-30T15:25:50;2.92;;;2.83;;
15183;SDS011;7693;49.266;7.104;2023-08-30T15:28:16;2.55;;;2.45;;
15183;SDS011;7693;49.266;7.104;2023-08-30T15:30:42;2.45;;;2.35;;
15183;SDS011;7693;49.266;7.104;2023-08-30T15:33:13;3.20;;;2.35;;
15183;SDS011;7693;49.266;7.104;2023-08-30T15:35:39;2.35;;;2.22;;
15183;SDS011;7693;49.266;7.104;2023-08-30T15:38:05;2.50;;;2.40;;
15183;SDS011;7693;49.266;7.104;2023-08-30T15:40:32;2.90;;;2.20;;
15183;SDS011;7693;49.266;7.104;2023-08-30T15:42:59;2.65;;;2.45;;
15183;SDS011;7693;49.266;7.104;2023-08-30T15:45:25;3.08;;;2.78;;
15183;SDS011;7693;49.266;7.104;2023-08-30T15:47:51;2.95;;;2.38;;
15183;SDS011;7693;49.266;7.104;2023-08-30T15:50:16;2.50;;;2.30;;
15183;SDS011;7693;49.266;7.104;2023-08-30T15:52:42;2.25;;;2.15;;
15183;SDS011;7693;49.266;7.104;2023-08-30T15:55:08;2.45;;;2.33;;
15183;SDS011;7693;49.266;7.104;2023-08-30T15:57:33;2.53;;;2.42;;
15183;SDS011;7693;49.266;7.104;2023-08-30T16:00:00;2.53;;;2.33;;
15183;SDS011;7693;49.266;7.104;2023-08-30T16:02:26;2.20;;;2.10;;
15183;SDS011;7693;49.266;7.104;2023-08-30T16:04:51;2.03;;;2.00;;
15183;SDS011;7693;49.266;7.104;2023-08-30T16:07:17;2.15;;;2.05;;
15183;SDS011;7693;49.266;7.104;2023-08-30T16:09:42;2.20;;;2.00;;
15183;SDS011;7693;49.266;7.104;2023-08-30T16:12:11;4.63;;;2.08;;
15183;SDS011;7693;49.266;7.104;2023-08-30T16:14:36;1.98;;;1.98;;
15183;SDS011;7693;49.266;7.104;2023-08-30T16:17:02;2.13;;;2.03;;
15183;SDS011;7693;49.266;7.104;2023-08-30T16:19:28;1.90;;;1.80;;
15183;SDS011;7693;49.266;7.104;2023-08-30T16:21:55;1.92;;;1.77;;
15183;SDS011;7693;49.266;7.104;2023-08-30T16:24:21;1.85;;;1.80;;
15183;SDS011;7693;49.266;7.104;2023-08-30T16:26:51;2.63;;;2.05;;
15183;SDS011;7693;49.266;7.104;2023-08-30T16:29:20;2.38;;;1.80;;
15183;SDS011;7693;49.266;7.104;2023-08-30T16:31:46;2.80;;;1.90;;
15183;SDS011;7693;49.266;7.104;2023-08-30T16:34:17;2.45;;;2.25;;
15183;SDS011;7693;49.266;7.104;2023-08-30T16:36:44;1.58;;;1.58;;
15183;SDS011;7693;49.266;7.104;2023-08-30T16:39:10;1.95;;;1.85;;
15183;SDS011;7693;49.266;7.104;2023-08-30T16:41:35;2.05;;;1.90;;
15183;SDS011;7693;49.266;7.104;2023-08-30T16:44:01;1.92;;;1.83;;
15183;SDS011;7693;49.266;7.104;2023-08-30T16:46:28;2.00;;;1.92;;
15183;SDS011;7693;49.266;7.104;2023-08-30T16:48:58;2.00;;;1.90;;
15183;SDS011;7693;49.266;7.104;2023-08-30T16:51:24;1.73;;;1.63;;
15183;SDS011;7693;49.266;7.104;2023-08-30T16:53:49;2.10;;;2.00;;
15183;SDS011;7693;49.266;7.104;2023-08-30T16:56:15;1.90;;;1.80;;
15183;SDS011;7693;49.266;7.104;2023-08-30T16:58:41;2.08;;;1.98;;
15183;SDS011;7693;49.266;7.104;2023-08-30T17:01:07;2.78;;;2.30;;
15183;SDS011;7693;49.266;7.104;2023-08-30T17:03:34;2.50;;;2.08;;
15183;SDS011;7693;49.266;7.104;2023-08-30T17:06:00;3.20;;;2.17;;
15183;SDS011;7693;49.266;7.104;2023-08-30T17:08:27;2.10;;;2.00;;
15183;SDS011;7693;49.266;7.104;2023-08-30T17:11:01;1.98;;;1.88;;
15183;SDS011;7693;49.266;7.104;2023-08-30T17:13:31;2.40;;;2.30;;
15183;SDS011;7693;49.266;7.104;2023-08-30T17:15:58;2.17;;;2.08;;
15183;SDS011;7693;49.266;7.104;2023-08-30T17:18:25;2.40;;;2.20;;
15183;SDS011;7693;49.266;7.104;2023-08-30T17:20:51;2.20;;;2.10;;
15183;SDS011;7693;49.266;7.104;2023-08-30T17:23:17;2.75;;;2.50;;
15183;SDS011;7693;49.266;7.104;2023-08-30T17:25:43;2.47;;;2.25;;
15183;SDS011;7693;49.266;7.104;2023-08-30T17:28:08;2.15;;;2.03;;
15183;SDS011;7693;49.266;7.104;2023-08-30T17:30:34;2.63;;;2.42;;
15183;SDS011;7693;49.266;7.104;2023-08-30T17:32:59;2.95;;;2.60;;
15183;SDS011;7693;49.266;7.104;2023-08-30T17:35:25;2.40;;;2.20;;
15183;SDS011;7693;49.266;7.104;2023-08-30T17:37:51;2.20;;;2.20;;
15183;SDS011;7693;49.266;7.104;2023-08-30T17:40:17;2.42;;;2.30;;
15183;SDS011;7693;49.266;7.104;2023-08-30T17:42:43;2.40;;;2.30;;
15183;SDS011;7693;49.266;7.104;2023-08-30T17:45:08;2.28;;;2.10;;
15183;SDS011;7693;49.266;7.104;2023-08-30T17:47:34;2.35;;;2.15;;
15183;SDS011;7693;49.266;7.104;2023-08-30T17:50:00;2.70;;;2.15;;
15183;SDS011;7693;49.266;7.104;2023-08-30T17:52:26;2.33;;;2.20;;
15183;SDS011;7693;49.266;7.104;2023-08-30T17:54:52;2.42;;;2.33;;
15183;SDS011;7693;49.266;7.104;2023-08-30T17:57:17;2.13;;;2.03;;
15183;SDS011;7693;49.266;7.104;2023-08-30T17:59:43;2.42;;;2.22;;
15183;SDS011;7693;49.266;7.104;2023-08-30T18:02:09;3.40;;;2.10;;
15183;SDS011;7693;49.266;7.104;2023-08-30T18:04:36;2.38;;;2.20;;
15183;SDS011;7693;49.266;7.104;2023-08-30T18:07:02;2.08;;;1.98;;
15183;SDS011;7693;49.266;7.104;2023-08-30T18:09:28;2.58;;;2.53;;
15183;SDS011;7693;49.266;7.104;2023-08-30T18:11:55;2.47;;;2.30;;
15183;SDS011;7693;49.266;7.104;2023-08-30T18:14:21;1.50;;;1.42;;
15183;SDS011;7693;49.266;7.104;2023-08-30T18:16:47;1.77;;;1.67;;
15183;SDS011;7693;49.266;7.104;2023-08-30T18:19:12;3.78;;;2.20;;
15183;SDS011;7693;49.266;7.104;2023-08-30T18:21:38;1.88;;;1.77;;
15183;SDS011;7693;49.266;7.104;2023-08-30T18:24:17;1.83;;;1.73;;
15183;SDS011;7693;49.266;7.104;2023-08-30T18:26:44;2.33;;;1.92;;
15183;SDS011;7693;49.266;7.104;2023-08-30T18:29:11;1.85;;;1.73;;
15183;SDS011;7693;49.266;7.104;2023-08-30T18:31:36;1.90;;;1.80;;
15183;SDS011;7693;49.266;7.104;2023-08-30T18:34:02;1.70;;;1.60;;
15183;SDS011;7693;49.266;7.104;2023-08-30T18:36:27;1.80;;;1.70;;
15183;SDS011;7693;49.266;7.104;2023-08-30T18:38:53;3.88;;;1.95;;
15183;SDS011;7693;49.266;7.104;2023-08-30T18:41:19;2.10;;;1.90;;
15183;SDS011;7693;49.266;7.104;2023-08-30T18:43:45;1.75;;;1.70;;
15183;SDS011;7693;49.266;7.104;2023-08-30T18:46:11;1.88;;;1.77;;
15183;SDS011;7693;49.266;7.104;2023-08-30T18:48:41;2.03;;;1.92;;
15183;SDS011;7693;49.266;7.104;2023-08-30T18:51:08;1.95;;;1.85;;
15183;SDS011;7693;49.266;7.104;2023-08-30T18:53:35;2.33;;;2.10;;
15183;SDS011;7693;49.266;7.104;2023-08-30T18:56:01;1.80;;;1.70;;
15183;SDS011;7693;49.266;7.104;2023-08-30T18:58:27;2.70;;;2.00;;
15183;SDS011;7693;49.266;7.104;2023-08-30T19:00:53;1.85;;;1.83;;
15183;SDS011;7693;49.266;7.104;2023-08-30T19:03:18;1.92;;;1.80;;
15183;SDS011;7693;49.266;7.104;2023-08-30T19:05:44;2.92;;;1.90;;
15183;SDS011;7693;49.266;7.104;2023-08-30T19:08:10;1.90;;;1.80;;
15183;SDS011;7693;49.266;7.104;2023-08-30T19:10:37;2.95;;;1.80;;
15183;SDS011;7693;49.266;7.104;2023-08-30T19:13:03;2.20;;;2.10;;
15183;SDS011;7693;49.266;7.104;2023-08-30T19:15:29;2.45;;;1.90;;
15183;SDS011;7693;49.266;7.104;2023-08-30T19:17:55;1.67;;;1.67;;
15183;SDS011;7693;49.266;7.104;2023-08-30T19:20:20;1.80;;;1.80;;
15183;SDS011;7693;49.266;7.104;2023-08-30T19:22:46;1.90;;;1.77;;
15183;SDS011;7693;49.266;7.104;2023-08-30T19:25:11;2.97;;;1.90;;
15183;SDS011;7693;49.266;7.104;2023-08-30T19:27:41;1.90;;;1.80;;
15183;SDS011;7693;49.266;7.104;2023-08-30T19:30:07;2.55;;;2.03;;
15183;SDS011;7693;49.266;7.104;2023-08-30T19:32:34;2.28;;;2.08;;
15183;SDS011;7693;49.266;7.104;2023-08-30T19:35:00;2.13;;;2.03;;
15183;SDS011;7693;49.266;7.104;2023-08-30T19:37:25;3.55;;;2.33;;
15183;SDS011;7693;49.266;7.104;2023-08-30T19:39:53;2.63;;;2.42;;
15183;SDS011;7693;49.266;7.104;2023-08-30T19:42:19;2.50;;;2.40;;
15183;SDS011;7693;49.266;7.104;2023-08-30T19:44:52;2.58;;;2.38;;
15183;SDS011;7693;49.266;7.104;2023-08-30T19:47:26;3.28;;;2.38;;
15183;SDS011;7693;49.266;7.104;2023-08-30T19:49:52;3.40;;;2.80;;
15183;SDS011;7693;49.266;7.104;2023-08-30T19:52:18;3.03;;;2.83;;
15183;SDS011;7693;49.266;7.104;2023-08-30T19:54:47;3.20;;;3.00;;
15183;SDS011;7693;49.266;7.104;2023-08-30T19:57:14;3.20;;;2.90;;
15183;SDS011;7693;49.266;7.104;2023-08-30T19:59:40;5.88;;;2.40;;
15183;SDS011;7693;49.266;7.104;2023-08-30T20:02:06;2.85;;;2.72;;
15183;SDS011;7693;49.266;7.104;2023-08-30T20:04:34;2.53;;;2.42;;
15183;SDS011;7693;49.266;7.104;2023-08-30T20:06:59;2.67;;;2.45;;
15183;SDS011;7693;49.266;7.104;2023-08-30T20:09:25;3.70;;;2.70;;
15183;SDS011;7693;49.266;7.104;2023-08-30T20:11:50;2.50;;;2.40;;
15183;SDS011;7693;49.266;7.104;2023-08-30T20:14:16;4.82;;;2.92;;
15183;SDS011;7693;49.266;7.104;2023-08-30T20:16:44;4.07;;;2.80;;
15183;SDS011;7693;49.266;7.104;2023-08-30T20:19:11;3.00;;;2.40;;
15183;SDS011;7693;49.266;7.104;2023-08-30T20:21:39;2.70;;;2.50;;
15183;SDS011;7693;49.266;7.104;2023-08-30T20:24:05;2.53;;;2.42;;
15183;SDS011;7693;49.266;7.104;2023-08-30T20:26:31;3.00;;;2.80;;
15183;SDS011;7693;49.266;7.104;2023-08-30T20:28:56;2.72;;;2.47;;
15183;SDS011;7693;49.266;7.104;2023-08-30T20:31:22;2.60;;;2.50;;
15183;SDS011;7693;49.266;7.104;2023-08-30T20:33:48;2.90;;;2.70;;
15183;SDS011;7693;49.266;7.104;2023-08-30T20:36:14;3.83;;;2.83;;
15183;SDS011;7693;49.266;7.104;2023-08-30T20:38:40;2.58;;;2.47;;
15183;SDS011;7693;49.266;7.104;2023-08-30T20:41:06;4.90;;;3.55;;
15183;SDS011;7693;49.266;7.104;2023-08-30T20:43:31;8.15;;;4.13;;
15183;SDS011;7693;49.266;7.104;2023-08-30T20:45:57;3.17;;;2.90;;
15183;SDS011;7693;49.266;7.104;2023-08-30T20:48:23;2.90;;;2.58;;
15183;SDS011;7693;49.266;7.104;2023-08-30T20:50:54;3.42;;;2.78;;
15183;SDS011;7693;49.266;7.104;2023-08-30T20:53:30;2.78;;;2.67;;
15183;SDS011;7693;49.266;7.104;2023-08-30T20:55:56;3.20;;;2.90;;
15183;SDS011;7693;49.266;7.104;2023-08-30T20:58:22;3.13;;;2.92;;
15183;SDS011;7693;49.266;7.104;2023-08-30T21:00:54;5.32;;;3.00;;
15183;SDS011;7693;49.266;7.104;2023-08-30T21:03:20;3.15;;;2.83;;
15183;SDS011;7693;49.266;7.104;2023-08-30T21:05:46;4.03;;;3.05;;
15183;SDS011;7693;49.266;7.104;2023-08-30T21:08:11;3.80;;;3.17;;
15183;SDS011;7693;49.266;7.104;2023-08-30T21:10:37;3.25;;;2.95;;
15183;SDS011;7693;49.266;7.104;2023-08-30T21:13:03;4.43;;;3.22;;
15183;SDS011;7693;49.266;7.104;2023-08-30T21:15:29;3.30;;;2.80;;
15183;SDS011;7693;49.266;7.104;2023-08-30T21:17:54;3.22;;;2.75;;
15183;SDS011;7693;49.266;7.104;2023-08-30T21:20:20;4.63;;;2.70;;
15183;SDS011;7693;49.266;7.104;2023-08-30T21:22:45;2.90;;;2.80;;
15183;SDS011;7693;49.266;7.104;2023-08-30T21:25:11;2.95;;;2.80;;
15183;SDS011;7693;49.266;7.104;2023-08-30T21:27:37;2.88;;;2.63;;
15183;SDS011;7693;49.266;7.104;2023-08-30T21:30:02;7.35;;;3.40;;
15183;SDS011;7693;49.266;7.104;2023-08-30T21:32:28;3.38;;;3.03;;
15183;SDS011;7693;49.266;7.104;2023-08-30T21:34:54;2.97;;;2.88;;
15183;SDS011;7693;49.266;7.104;2023-08-30T21:37:21;3.38;;;2.70;;
15183;SDS011;7693;49.266;7.104;2023-08-30T21:39:46;4.70;;;3.22;;
15183;SDS011;7693;49.266;7.104;2023-08-30T21:42:13;5.18;;;3.53;;
15183;SDS011;7693;49.266;7.104;2023-08-30T21:44:40;3.33;;;3.13;;
15183;SDS011;7693;49.266;7.104;2023-08-30T21:47:08;3.20;;;2.97;;
15183;SDS011;7693;49.266;7.104;2023-08-30T21:49:34;3.22;;;2.97;;
15183;SDS011;7693;49.266;7.104;2023-08-30T21:52:00;3.20;;;3.10;;
15183;SDS011;7693;49.266;7.104;2023-08-30T21:54:25;3.45;;;3.15;;
15183;SDS011;7693;49.266;7.104;2023-08-30T21:56:51;3.30;;;3.20;;
15183;SDS011;7693;49.266;7.104;2023-08-30T21:59:16;3.38;;;3.17;;
15183;SDS011;7693;49.266;7.104;2023-08-30T22:01:42;5.05;;;3.30;;
15183;SDS011;7693;49.266;7.104;2023-08-30T22:04:08;3.38;;;3.17;;
15183;SDS011;7693;49.266;7.104;2023-08-30T22:06:34;9.40;;;3.78;;
15183;SDS011;7693;49.266;7.104;2023-08-30T22:09:00;6.90;;;3.73;;
15183;SDS011;7693;49.266;7.104;2023-08-30T22:11:28;5.53;;;3.65;;
15183;SDS011;7693;49.266;7.104;2023-08-30T22:13:55;3.45;;;3.20;;
15183;SDS011;7693;49.266;7.104;2023-08-30T22:16:21;3.58;;;3.28;;
15183;SDS011;7693;49.266;7.104;2023-08-30T22:18:50;4.38;;;3.83;;
15183;SDS011;7693;49.266;7.104;2023-08-30T22:21:16;4.43;;;3.92;;